createdAt,value
2023-05-09T00:01:53.398Z,101330.55
2023-05-09T00:06:55.555Z,101327.64
2023-05-09T00:11:57.635Z,101324.74
2023-05-09T00:17:00.332Z,101320.25
2023-05-09T00:22:02.515Z,101319.70
2023-05-09T00:27:04.806Z,101317.79
2023-05-09T00:32:07.031Z,101317.13
2023-05-09T00:37:09.393Z,101313.27
2023-05-09T00:42:11.668Z,101312.95
2023-05-09T00:47:13.848Z,101309.48
2023-05-09T00:52:17.154Z,101308.78
2023-05-09T00:57:19.445Z,101307.29
2023-05-09T01:02:21.847Z,101304.70
2023-05-09T01:07:42.965Z,101304.08
2023-05-09T01:12:58.538Z,101302.88
2023-05-09T01:18:16.193Z,101305.09
2023-05-09T01:23:43.684Z,101300.59
2023-05-09T01:29:23.457Z,101299.52
2023-05-09T01:34:30.353Z,101300.89
2023-05-09T01:39:34.170Z,101300.91
2023-05-09T01:44:40.760Z,101298.52
2023-05-09T01:49:44.377Z,101297.55
2023-05-09T01:54:48.020Z,101293.20
2023-05-09T01:59:51.112Z,101292.44
2023-05-09T02:04:56.772Z,101291.92
2023-05-09T02:10:00.205Z,101289.52
2023-05-09T02:15:02.570Z,101289.94
2023-05-09T02:20:05.576Z,101293.63
2023-05-09T02:25:08.739Z,101297.06
2023-05-09T02:30:24.695Z,101296.69
2023-05-09T02:35:28.555Z,101298.50
2023-05-09T02:40:30.899Z,101302.78
2023-05-09T02:45:33.599Z,101308.64
2023-05-09T02:50:37.820Z,101305.70
2023-05-09T02:55:40.014Z,101295.33
2023-05-09T03:00:42.806Z,101298.84
2023-05-09T03:05:45.196Z,101297.27
2023-05-09T03:10:47.486Z,101299.45
2023-05-09T03:15:49.685Z,101298.59
2023-05-09T03:20:51.850Z,101299.45
2023-05-09T03:25:53.934Z,101299.04
2023-05-09T03:30:56.122Z,101304.54
2023-05-09T03:35:58.405Z,101299.77
2023-05-09T03:41:00.487Z,101305.56
2023-05-09T03:46:02.564Z,101307.09
2023-05-09T03:51:04.765Z,101313.04
2023-05-09T03:56:08.283Z,101308.91
2023-05-09T04:01:10.350Z,101311.25
2023-05-09T04:06:12.640Z,101317.84
2023-05-09T04:11:15.343Z,101319.59
2023-05-09T04:16:17.557Z,101322.39
2023-05-09T04:21:19.809Z,101315.63
2023-05-09T04:26:22.196Z,101321.52
2023-05-09T04:31:26.131Z,101324.34
2023-05-09T04:36:33.427Z,101328.26
2023-05-09T04:41:35.611Z,101331.89
2023-05-09T04:46:37.775Z,101327.15
2023-05-09T04:51:40.285Z,101332.09
2023-05-09T04:56:42.709Z,101333.73
2023-05-09T05:01:45.228Z,101338.29
2023-05-09T05:06:47.352Z,101336.11
2023-05-09T05:11:59.570Z,101336.09
2023-05-09T05:17:04.112Z,101343.39
2023-05-09T05:22:06.310Z,101337.77
2023-05-09T05:27:08.348Z,101335.14
2023-05-09T05:32:10.803Z,101340.27
2023-05-09T05:37:13.151Z,101338.73
2023-05-09T05:42:15.151Z,101335.79
2023-05-09T05:47:17.219Z,101332.55
2023-05-09T05:52:19.807Z,101329.09
2023-05-09T05:57:22.103Z,101332.27
2023-05-09T06:02:24.311Z,101332.29
2023-05-09T06:07:27.275Z,101329.02
2023-05-09T06:12:29.470Z,101328.38
2023-05-09T06:17:31.689Z,101330.41
2023-05-09T06:22:33.934Z,101327.15
2023-05-09T06:27:36.021Z,101326.69
2023-05-09T06:32:38.328Z,101327.14
2023-05-09T06:37:40.484Z,101325.98
2023-05-09T06:42:42.776Z,101329.13
2023-05-09T06:47:45.204Z,101325.63
2023-05-09T06:52:48.061Z,101326.21
2023-05-09T06:57:50.558Z,101329.30
2023-05-09T07:02:52.766Z,101327.00
2023-05-09T07:07:55.664Z,101323.73
2023-05-09T07:12:58.178Z,101316.00
2023-05-09T07:18:00.459Z,101311.37
2023-05-09T07:23:03.656Z,101307.91
2023-05-09T07:28:06.656Z,101308.92
2023-05-09T07:33:08.944Z,101301.71
2023-05-09T07:38:11.139Z,101300.10
2023-05-09T07:43:13.495Z,101295.49
2023-05-09T07:48:15.610Z,101287.02
2023-05-09T07:53:17.859Z,101286.08
2023-05-09T07:58:20.045Z,101284.20
2023-05-09T08:03:22.288Z,101278.73
2023-05-09T08:08:24.643Z,101271.45
2023-05-09T08:13:26.837Z,101274.27
2023-05-09T08:18:29.088Z,101266.11
2023-05-09T08:23:31.278Z,101265.88
2023-05-09T08:28:33.366Z,101257.48
2023-05-09T08:33:35.753Z,101254.66
2023-05-09T08:38:40.082Z,101251.66
2023-05-09T08:43:43.085Z,101247.94
2023-05-09T08:48:45.475Z,101244.23
2023-05-09T08:53:47.866Z,101235.13
2023-05-09T08:58:51.177Z,101230.66
2023-05-09T09:03:53.662Z,101219.14
2023-05-09T09:08:58.530Z,101215.55
2023-05-09T09:14:06.394Z,101212.42
2023-05-09T09:19:12.614Z,101208.00
2023-05-09T09:24:21.146Z,101207.98
2023-05-09T09:29:24.251Z,101205.42
2023-05-09T09:34:26.432Z,101203.04
2023-05-09T09:39:28.615Z,101196.90
2023-05-09T09:44:30.799Z,101194.52
2023-05-09T09:49:32.986Z,101188.89
2023-05-09T09:54:35.175Z,101196.95
2023-05-09T09:59:37.353Z,101191.04
2023-05-09T10:04:43.531Z,101182.88
2023-05-09T10:09:46.122Z,101182.97
2023-05-09T10:14:48.525Z,101169.08
2023-05-09T10:19:51.117Z,101166.46
2023-05-09T10:25:02.353Z,101161.02
2023-05-09T10:30:10.636Z,101147.82
2023-05-09T10:35:16.736Z,101147.75
2023-05-09T10:40:19.602Z,101144.14
2023-05-09T10:45:22.520Z,101137.52
2023-05-09T10:50:25.580Z,101130.64
2023-05-09T10:55:39.470Z,101118.53
2023-05-09T11:00:42.398Z,101118.55
2023-05-09T11:05:45.471Z,101112.27
2023-05-09T11:10:48.273Z,101105.37
2023-05-09T11:16:03.318Z,101094.97
2023-05-09T11:21:11.383Z,101087.01
2023-05-09T11:26:15.518Z,101081.69
2023-05-09T11:31:18.912Z,101080.81
2023-05-09T11:36:32.996Z,101073.09
2023-05-09T11:41:44.138Z,101064.89
2023-05-09T11:46:47.713Z,101060.38
2023-05-09T11:51:49.992Z,101056.13
2023-05-09T11:56:52.171Z,101043.49
2023-05-09T12:01:54.672Z,101041.77
2023-05-09T12:07:01.459Z,101030.16
2023-05-09T12:12:11.827Z,101028.67
2023-05-09T12:17:13.827Z,101013.27
2023-05-09T12:22:15.995Z,101007.88
2023-05-09T12:27:18.791Z,101007.81
2023-05-09T12:32:21.384Z,101005.80
2023-05-09T12:37:23.568Z,101002.09
2023-05-09T12:42:29.259Z,100992.38
2023-05-09T12:47:32.132Z,100986.64
2023-05-09T12:52:39.758Z,100984.95
2023-05-09T12:58:03.168Z,100972.73
2023-05-09T13:03:05.648Z,100967.98
2023-05-09T13:08:07.906Z,100956.52
2023-05-09T13:13:16.050Z,100956.80
2023-05-09T13:18:18.215Z,100950.58
2023-05-09T13:23:21.830Z,100947.20
2023-05-09T13:28:23.917Z,100935.60
2023-05-09T13:33:26.727Z,100931.91
2023-05-09T13:38:36.163Z,100923.48
2023-05-09T13:43:40.504Z,100908.13
2023-05-09T13:48:43.889Z,100903.35
2023-05-09T13:53:46.411Z,100901.23
2023-05-09T13:58:48.591Z,100902.95
2023-05-09T14:03:50.709Z,100911.45
2023-05-09T14:08:52.959Z,100916.69
2023-05-09T14:13:55.665Z,100912.33
2023-05-09T14:18:58.046Z,100912.02
2023-05-09T14:24:00.169Z,100908.38
2023-05-09T14:29:03.864Z,100907.20
2023-05-09T14:34:05.839Z,100912.04
2023-05-09T14:39:07.912Z,100898.21
2023-05-09T14:44:10.217Z,100902.29
2023-05-09T14:49:12.481Z,100906.06
2023-05-09T14:54:15.227Z,100902.02
2023-05-09T14:59:17.670Z,100892.73
2023-05-09T15:04:19.793Z,100885.44
2023-05-09T15:09:22.141Z,100882.55
2023-05-09T15:14:24.325Z,100876.11
2023-05-09T15:19:30.620Z,100865.42
2023-05-09T15:24:32.900Z,100861.43
2023-05-09T15:29:34.849Z,100857.31
2023-05-09T15:34:37.533Z,100844.84
2023-05-09T15:39:45.032Z,100841.32
2023-05-09T15:44:47.064Z,100835.61
2023-05-09T15:49:49.150Z,100832.45
2023-05-09T15:54:51.256Z,100826.75
2023-05-09T15:59:54.734Z,100819.02
2023-05-09T16:04:56.717Z,100807.45
2023-05-09T16:09:58.800Z,100801.17
2023-05-09T16:15:01.407Z,100792.45
2023-05-09T16:20:04.002Z,100787.11
2023-05-09T16:25:06.894Z,100771.80
2023-05-09T16:30:09.698Z,100764.43
2023-05-09T16:35:12.076Z,100759.65
2023-05-09T16:40:14.926Z,100754.04
2023-05-09T16:45:17.264Z,100748.08
2023-05-09T16:50:19.653Z,100741.64
2023-05-09T16:55:21.843Z,100737.15
2023-05-09T17:00:24.129Z,100731.47
2023-05-09T17:05:26.213Z,100723.52
2023-05-09T17:10:28.287Z,100717.58
2023-05-09T17:15:30.783Z,100712.42
2023-05-09T17:20:32.970Z,100712.85
2023-05-09T17:25:35.277Z,100705.77
2023-05-09T17:30:39.038Z,100705.55
2023-05-09T17:35:41.157Z,100697.40
2023-05-09T17:40:43.953Z,100693.32
2023-05-09T17:45:46.318Z,100686.55
2023-05-09T17:50:49.449Z,100686.27
2023-05-09T17:55:51.735Z,100685.75
2023-05-09T18:00:54.843Z,100686.62
2023-05-09T18:05:57.243Z,100684.56
2023-05-09T18:10:59.408Z,100688.64
2023-05-09T18:16:02.226Z,100683.44
2023-05-09T18:21:05.011Z,100687.05
2023-05-09T18:26:08.088Z,100684.53
2023-05-09T18:31:11.941Z,100683.58
2023-05-09T18:36:14.750Z,100685.39
2023-05-09T18:41:17.025Z,100689.56
2023-05-09T18:46:22.134Z,100686.16
2023-05-09T18:51:25.182Z,100683.23
2023-05-09T18:56:27.363Z,100683.81
2023-05-09T19:01:29.633Z,100695.95
2023-05-09T19:06:32.066Z,100697.41
2023-05-09T19:11:34.234Z,100689.42
2023-05-09T19:16:36.433Z,100688.43
2023-05-09T19:21:44.739Z,100688.11
2023-05-09T19:26:48.513Z,100687.98
2023-05-09T19:31:50.744Z,100683.66
2023-05-09T19:36:53.032Z,100674.73
2023-05-09T19:41:58.346Z,100676.02
2023-05-09T19:47:04.811Z,100674.46
2023-05-09T19:52:07.099Z,100669.82
2023-05-09T19:57:10.070Z,100666.33
2023-05-09T20:02:12.460Z,100671.92
2023-05-09T20:07:15.977Z,100677.77
2023-05-09T20:12:18.218Z,100679.27
2023-05-09T20:17:20.338Z,100681.37
2023-05-09T20:22:22.531Z,100686.11
2023-05-09T20:27:25.933Z,100685.78
2023-05-09T20:32:27.918Z,100684.59
2023-05-09T20:37:30.513Z,100688.13
2023-05-09T20:42:33.006Z,100686.61
2023-05-09T20:47:35.119Z,100687.43
2023-05-09T20:52:37.369Z,100689.27
2023-05-09T20:57:40.273Z,100688.95
2023-05-09T21:02:43.635Z,100685.50
2023-05-09T21:07:45.771Z,100685.80
2023-05-09T21:12:48.118Z,100678.86
2023-05-09T21:17:50.564Z,100682.35
2023-05-09T21:22:52.728Z,100681.04
2023-05-09T21:27:56.037Z,100677.55
2023-05-09T21:32:58.373Z,100675.49
2023-05-09T21:38:00.613Z,100672.13
2023-05-09T21:43:03.410Z,100672.58
2023-05-09T21:48:06.055Z,100671.33
2023-05-09T21:53:08.396Z,100667.79
2023-05-09T21:58:10.580Z,100672.99
2023-05-09T22:03:13.084Z,100678.14
2023-05-09T22:08:15.455Z,100678.09
2023-05-09T22:13:18.093Z,100678.42
2023-05-09T22:18:20.234Z,100674.67
2023-05-09T22:23:22.317Z,100673.13
2023-05-09T22:28:24.499Z,100672.05
2023-05-09T22:33:27.093Z,100667.73
2023-05-09T22:38:29.893Z,100666.13
2023-05-09T22:43:38.857Z,100659.44
2023-05-09T22:48:41.945Z,100663.43
2023-05-09T22:53:44.025Z,100662.19
2023-05-09T22:58:46.212Z,100657.81
2023-05-09T23:03:48.392Z,100655.36
2023-05-09T23:08:50.477Z,100654.54
2023-05-09T23:13:52.966Z,100650.83
2023-05-09T23:18:55.151Z,100652.47
2023-05-09T23:23:57.642Z,100649.55
2023-05-09T23:28:59.934Z,100647.23
2023-05-09T23:34:02.216Z,100648.14
2023-05-09T23:39:04.502Z,100648.98
2023-05-09T23:44:07.195Z,100642.86
2023-05-09T23:49:09.281Z,100644.97
2023-05-09T23:54:11.460Z,100639.91
2023-05-09T23:59:13.751Z,100636.73
